createdAt,value
2022-10-10T00:00:06.124Z,100978.25
2022-10-10T00:05:08.217Z,100978.28
2022-10-10T00:10:09.803Z,100977.94
2022-10-10T00:15:13.344Z,100971.41
2022-10-10T00:20:17.830Z,100963.59
2022-10-10T00:25:19.323Z,100969.94
2022-10-10T00:30:21.123Z,100975.03
2022-10-10T00:35:22.616Z,100971.09
2022-10-10T00:40:24.479Z,100973.69
2022-10-10T00:45:35.095Z,100971.88
2022-10-10T00:50:43.193Z,100969.75
2022-10-10T00:55:45.632Z,100966.78
2022-10-10T01:00:47.267Z,100963.56
2022-10-10T01:05:50.351Z,100960.28
2022-10-10T01:11:02.777Z,100955.22
2022-10-10T01:16:34.836Z,100949.31
2022-10-10T01:21:50.916Z,100950.47
2022-10-10T01:27:11.016Z,100944.63
2022-10-10T01:32:37.483Z,100942.34
2022-10-10T01:37:48.253Z,100937.94
2022-10-10T01:42:54.392Z,100937.28
2022-10-10T01:48:01.637Z,100927.00
2022-10-10T01:53:17.496Z,100924.88
2022-10-10T01:58:46.942Z,100925.16
2022-10-10T02:03:55.919Z,100923.81
2022-10-10T02:09:03.804Z,100910.53
2022-10-10T02:14:24.250Z,100906.63
2022-10-10T02:19:28.019Z,100911.41
2022-10-10T02:24:29.683Z,100895.13
2022-10-10T02:29:34.969Z,100907.53
2022-10-10T02:34:40.056Z,100897.91
2022-10-10T02:39:46.786Z,100898.88
2022-10-10T02:44:48.422Z,100886.16
2022-10-10T02:49:50.385Z,100884.72
2022-10-10T02:54:51.890Z,100887.97
2022-10-10T02:59:53.367Z,100890.22
2022-10-10T03:04:54.866Z,100887.34
2022-10-10T03:09:56.374Z,100889.13
2022-10-10T03:14:57.846Z,100885.69
2022-10-10T03:19:59.368Z,100876.72
2022-10-10T03:25:00.887Z,100881.09
2022-10-10T03:30:03.577Z,100872.75
2022-10-10T03:35:05.381Z,100877.44
2022-10-10T03:40:07.219Z,100884.28
2022-10-10T03:45:09.103Z,100875.16
2022-10-10T03:50:10.964Z,100884.91
2022-10-10T03:55:12.493Z,100874.28
2022-10-10T04:00:14.092Z,100874.66
2022-10-10T04:05:15.780Z,100876.84
2022-10-10T04:10:17.349Z,100880.16
2022-10-10T04:15:18.883Z,100876.06
2022-10-10T04:20:20.366Z,100872.47
2022-10-10T04:25:21.823Z,100878.19
2022-10-10T04:30:23.351Z,100878.34
2022-10-10T04:35:24.877Z,100871.84
2022-10-10T04:40:27.075Z,100868.06
2022-10-10T04:45:28.878Z,100859.75
2022-10-10T04:50:30.445Z,100866.75
2022-10-10T04:55:31.929Z,100871.66
2022-10-10T05:00:33.613Z,100860.25
2022-10-10T05:05:35.166Z,100863.03
2022-10-10T05:10:37.576Z,100871.66
2022-10-10T05:15:39.745Z,100870.84
2022-10-10T05:20:41.254Z,100859.56
2022-10-10T05:25:49.624Z,100870.19
2022-10-10T05:30:53.905Z,100879.97
2022-10-10T05:36:06.890Z,100881.44
2022-10-10T05:41:09.340Z,100882.09
2022-10-10T05:46:10.834Z,100873.28
2022-10-10T05:51:12.347Z,100874.09
2022-10-10T05:56:14.238Z,100879.66
2022-10-10T06:01:15.737Z,100876.06
2022-10-10T06:06:17.219Z,100867.75
2022-10-10T06:11:19.090Z,100874.75
2022-10-10T06:16:25.185Z,100862.19
2022-10-10T06:21:26.721Z,100873.44
2022-10-10T06:26:28.258Z,100868.69
2022-10-10T06:31:29.769Z,100873.25
2022-10-10T06:36:31.261Z,100883.66
2022-10-10T06:41:32.794Z,100886.53
2022-10-10T06:46:34.303Z,100876.16
2022-10-10T06:51:35.858Z,100885.38
2022-10-10T06:56:37.381Z,100889.97
2022-10-10T07:01:39.079Z,100904.81
2022-10-10T07:06:40.673Z,100899.81
2022-10-10T07:11:42.219Z,100910.97
2022-10-10T07:16:43.723Z,100907.63
2022-10-10T07:21:45.214Z,100907.50
2022-10-10T07:26:46.725Z,100917.94
2022-10-10T07:31:48.271Z,100919.41
2022-10-10T07:36:49.943Z,100930.44
2022-10-10T07:41:51.841Z,100929.91
2022-10-10T07:46:53.527Z,100941.06
2022-10-10T07:51:58.807Z,100929.66
2022-10-10T07:57:02.113Z,100931.34
2022-10-10T08:02:03.996Z,100928.63
2022-10-10T08:07:05.949Z,100931.91
2022-10-10T08:12:07.497Z,100937.75
2022-10-10T08:17:09.019Z,100934.75
2022-10-10T08:22:10.572Z,100932.50
2022-10-10T08:27:12.100Z,100930.38
2022-10-10T08:32:13.586Z,100942.72
2022-10-10T08:37:15.399Z,100950.34
2022-10-10T08:42:34.403Z,100926.34
2022-10-10T08:47:38.552Z,100933.00
2022-10-10T08:52:51.456Z,100930.19
2022-10-10T08:58:02.825Z,100925.84
2022-10-10T09:03:18.510Z,100929.53
2022-10-10T09:08:42.889Z,100939.34
2022-10-10T09:14:10.606Z,100938.22
2022-10-10T09:19:39.424Z,100945.25
2022-10-10T09:24:52.818Z,100943.50
2022-10-10T09:30:01.383Z,100949.66
2022-10-10T09:35:16.532Z,100952.81
2022-10-10T09:40:36.256Z,100942.47
2022-10-10T09:45:44.422Z,100949.22
2022-10-10T09:50:45.953Z,100950.19
2022-10-10T09:55:50.198Z,100951.97
2022-10-10T10:00:52.077Z,100958.44
2022-10-10T10:05:55.640Z,100956.94
2022-10-10T10:10:58.583Z,100957.25
2022-10-10T10:16:10.284Z,100955.66
2022-10-10T10:21:11.839Z,100949.63
2022-10-10T10:26:23.661Z,100949.44
2022-10-10T10:31:34.323Z,100961.78
2022-10-10T10:36:38.897Z,100960.25
2022-10-10T10:41:46.526Z,100952.19
2022-10-10T10:46:53.965Z,100951.63
2022-10-10T10:52:14.757Z,100957.25
2022-10-10T10:58:15.158Z,100967.66
2022-10-10T11:08:57.506Z,100963.50
2022-10-10T11:14:04.881Z,100962.88
2022-10-10T11:19:21.530Z,100956.41
2022-10-10T11:24:45.613Z,100950.56
2022-10-10T11:29:59.283Z,100959.75
2022-10-10T11:35:12.277Z,100956.94
2022-10-10T11:40:32.244Z,100956.09
2022-10-10T11:45:44.217Z,100953.38
2022-10-10T11:50:53.705Z,100960.69
2022-10-10T11:55:55.156Z,100964.06
2022-10-10T12:01:06.973Z,100967.19
2022-10-10T12:06:19.699Z,100960.72
2022-10-10T12:11:26.336Z,100962.34
2022-10-10T12:16:34.200Z,100968.66
2022-10-10T12:21:59.195Z,100957.41
2022-10-10T12:27:00.609Z,100955.00
2022-10-10T12:32:14.249Z,100958.88
2022-10-10T12:37:33.887Z,100951.56
2022-10-10T12:42:59.110Z,100942.09
2022-10-10T12:48:06.063Z,100943.63
2022-10-10T12:53:19.516Z,100943.31
2022-10-10T12:58:27.944Z,100949.63
2022-10-10T13:03:44.976Z,100944.63
2022-10-10T13:08:47.235Z,100940.22
2022-10-10T13:13:51.207Z,100953.72
2022-10-10T13:18:57.952Z,100949.03
2022-10-10T13:24:05.883Z,100937.22
2022-10-10T13:29:22.620Z,100944.44
2022-10-10T13:34:27.983Z,100938.53
2022-10-10T13:39:33.238Z,100928.44
2022-10-10T13:44:52.531Z,100939.53
2022-10-10T13:49:56.383Z,100941.25
2022-10-10T13:55:23.377Z,100944.97
2022-10-10T14:00:24.928Z,100955.06
2022-10-10T14:05:31.926Z,100936.84
2022-10-10T14:10:33.829Z,100943.75
2022-10-10T14:15:41.229Z,100940.97
2022-10-10T14:20:43.360Z,100953.25
2022-10-10T14:25:47.753Z,100946.88
2022-10-10T14:30:49.261Z,100953.03
2022-10-10T14:35:52.526Z,100952.56
2022-10-10T14:40:54.851Z,100957.91
2022-10-10T14:45:57.605Z,100954.78
2022-10-10T14:50:59.127Z,100957.09
2022-10-10T14:56:00.710Z,100964.97
2022-10-10T15:01:02.503Z,100972.06
2022-10-10T15:06:04.430Z,100974.25
2022-10-10T15:11:06.100Z,100982.50
2022-10-10T15:16:07.804Z,100995.28
2022-10-10T15:21:11.160Z,101005.56
2022-10-10T15:26:12.708Z,101004.63
2022-10-10T15:31:14.383Z,101014.25
2022-10-10T15:36:19.213Z,101034.00
2022-10-10T15:41:20.973Z,101033.63
2022-10-10T15:46:25.413Z,101048.09
2022-10-10T15:51:27.139Z,101055.97
2022-10-10T15:56:28.985Z,101065.81
2022-10-10T16:01:31.157Z,101070.56
2022-10-10T16:06:33.331Z,101074.63
2022-10-10T16:11:34.851Z,101080.28
2022-10-10T16:16:36.518Z,101095.66
2022-10-10T16:21:38.141Z,101107.22
2022-10-10T16:26:39.777Z,101110.78
2022-10-10T16:31:41.296Z,101129.97
2022-10-10T16:36:43.148Z,101124.53
2022-10-10T16:41:49.058Z,101142.31
2022-10-10T16:46:51.137Z,101157.53
2022-10-10T16:51:52.699Z,101168.16
2022-10-10T16:56:54.230Z,101173.81
2022-10-10T17:01:55.737Z,101182.72
2022-10-10T17:06:57.289Z,101188.69
2022-10-10T17:11:58.800Z,101200.41
2022-10-10T17:17:11.767Z,101206.84
2022-10-10T17:22:14.225Z,101207.22
2022-10-10T17:27:16.020Z,101215.94
2022-10-10T17:32:18.919Z,101217.19
2022-10-10T17:37:20.553Z,101235.34
2022-10-10T17:42:22.355Z,101249.25
2022-10-10T17:47:24.027Z,101259.16
2022-10-10T17:52:26.078Z,101263.03
2022-10-10T17:57:27.626Z,101281.81
2022-10-10T18:02:29.176Z,101283.94
2022-10-10T18:07:30.723Z,101302.72
2022-10-10T18:12:32.222Z,101305.78
2022-10-10T18:17:33.732Z,101311.09
2022-10-10T18:22:35.229Z,101322.56
2022-10-10T18:27:36.784Z,101336.31
2022-10-10T18:32:38.305Z,101347.00
2022-10-10T18:37:39.813Z,101349.31
2022-10-10T18:42:41.328Z,101353.63
2022-10-10T18:47:42.829Z,101360.78
2022-10-10T18:52:44.315Z,101373.63
2022-10-10T18:57:45.953Z,101372.03
2022-10-10T19:02:47.620Z,101377.53
2022-10-10T19:07:49.142Z,101385.06
2022-10-10T19:12:50.637Z,101399.94
2022-10-10T19:17:52.162Z,101420.69
2022-10-10T19:22:53.791Z,101428.44
2022-10-10T19:27:56.736Z,101424.75
2022-10-10T19:32:58.965Z,101440.38
2022-10-10T19:38:00.466Z,101458.44
2022-10-10T19:43:02.011Z,101451.72
2022-10-10T19:48:03.705Z,101474.09
2022-10-10T19:53:05.905Z,101494.94
2022-10-10T19:58:07.857Z,101504.25
2022-10-10T20:03:09.329Z,101508.84
2022-10-10T20:08:10.900Z,101505.94
2022-10-10T20:13:12.393Z,101519.31
2022-10-10T20:18:13.890Z,101536.53
2022-10-10T20:23:18.167Z,101544.03
2022-10-10T20:28:21.464Z,101559.84
2022-10-10T20:33:22.982Z,101567.31
2022-10-10T20:38:24.481Z,101575.19
2022-10-10T20:43:25.999Z,101579.56
2022-10-10T20:48:27.597Z,101588.50
2022-10-10T20:53:29.090Z,101593.97
2022-10-10T20:58:30.828Z,101606.28
2022-10-10T21:03:32.371Z,101615.41
2022-10-10T21:08:34.015Z,101622.72
2022-10-10T21:13:37.584Z,101626.22
2022-10-10T21:18:39.990Z,101635.75
2022-10-10T21:23:44.279Z,101644.22
2022-10-10T21:28:49.460Z,101652.00
2022-10-10T21:33:51.053Z,101664.00
2022-10-10T21:38:54.160Z,101664.44
2022-10-10T21:43:58.035Z,101672.72
2022-10-10T21:49:01.849Z,101675.38
2022-10-10T21:54:03.598Z,101676.38
2022-10-10T21:59:05.833Z,101684.25
2022-10-10T22:04:07.559Z,101688.28
2022-10-10T22:09:09.084Z,101689.19
2022-10-10T22:14:10.601Z,101693.16
2022-10-10T22:19:12.137Z,101700.25
2022-10-10T22:24:13.641Z,101700.78
2022-10-10T22:29:15.184Z,101713.91
2022-10-10T22:34:16.733Z,101713.28
2022-10-10T22:39:18.290Z,101709.50
2022-10-10T22:44:19.961Z,101714.06
2022-10-10T22:49:21.497Z,101723.22
2022-10-10T22:54:23.013Z,101730.56
2022-10-10T22:59:24.744Z,101733.69
2022-10-10T23:04:26.337Z,101738.44
2022-10-10T23:09:27.980Z,101742.84
2022-10-10T23:14:32.478Z,101743.13
2022-10-10T23:19:34.079Z,101743.47
2022-10-10T23:24:39.291Z,101758.44
2022-10-10T23:29:41.083Z,101752.91
2022-10-10T23:34:42.611Z,101759.31
2022-10-10T23:39:44.127Z,101752.69
2022-10-10T23:44:45.837Z,101764.28
2022-10-10T23:49:47.399Z,101764.09
2022-10-10T23:54:48.897Z,101762.88
2022-10-10T23:59:50.641Z,101769.47
